Time;durP1;ratioP1;P1;durP2;ratioP2;P2;SDS_P1;SDS_P2;PMS_P1;PMS_P2;Temp;Humidity;BMP_temperature;BMP_pressure;BME280_temperature;BME280_humidity;BME280_pressure;Samples;Min_cycle;Max_cycle;Signal;HPM_P1;HPM_P2
2021/12/22 00:01:48;;;;;;;5.50;4.70;;;-5.00;99.90;;;;;;5067463;28;20226;-55
2021/12/22 00:04:15;;;;;;;6.30;5.50;;;-4.80;99.90;;;;;;5059228;28;20203;-55
2021/12/22 00:06:42;;;;;;;5.95;5.28;;;-4.80;99.90;;;;;;5059488;28;20209;-56
2021/12/22 00:09:09;;;;;;;10.40;5.63;;;-5.00;99.90;;;;;;5066589;28;20209;-55
2021/12/22 00:11:36;;;;;;;11.68;6.35;;;-4.90;99.90;;;;;;5056334;28;20994;-55
2021/12/22 00:14:04;;;;;;;7.33;6.00;;;-4.80;99.90;;;;;;5070813;28;20232;-55
2021/12/22 00:16:31;;;;;;;6.60;4.57;;;-4.60;99.90;;;;;;5069652;28;20479;-55
2021/12/22 00:18:58;;;;;;;6.43;5.00;;;-4.50;99.90;;;;;;5062051;28;20533;-56
2021/12/22 00:21:25;;;;;;;8.00;5.50;;;-4.40;99.90;;;;;;5061269;28;20494;-55
2021/12/22 00:23:52;;;;;;;5.83;5.20;;;-4.40;99.90;;;;;;5062972;28;20289;-55
2021/12/22 00:26:19;;;;;;;8.20;5.17;;;-4.40;99.90;;;;;;5067008;28;20475;-55
2021/12/22 00:28:47;;;;;;;6.77;4.43;;;-4.30;99.90;;;;;;5061271;28;20975;-56
2021/12/22 00:31:18;;;;;;;7.53;5.00;;;-4.30;99.90;;;;;;5060781;28;21006;-55
2021/12/22 00:33:48;;;;;;;5.53;5.03;;;-4.30;99.90;;;;;;5056337;28;20557;-55
2021/12/22 00:36:17;;;;;;;4.30;3.90;;;-4.30;99.90;;;;;;5068449;28;20447;-56
2021/12/22 00:38:44;;;;;;;9.67;4.50;;;-4.40;99.90;;;;;;5069638;28;20464;-57
2021/12/22 00:41:11;;;;;;;5.32;4.82;;;-4.40;99.90;;;;;;5067873;28;20551;-55
2021/12/22 00:43:38;;;;;;;8.00;5.83;;;-4.50;99.90;;;;;;5067665;28;20727;-55
2021/12/22 00:46:05;;;;;;;5.87;5.23;;;-4.90;99.90;;;;;;5058680;28;20468;-57
2021/12/22 00:48:34;;;;;;;9.53;6.17;;;-4.80;99.90;;;;;;5071696;28;20448;-55
2021/12/22 00:51:01;;;;;;;5.63;5.03;;;-4.80;99.90;;;;;;5062019;28;20576;-55
2021/12/22 00:53:28;;;;;;;7.15;5.18;;;-4.70;99.90;;;;;;5059526;28;20284;-57
2021/12/22 00:55:56;;;;;;;5.50;4.80;;;-4.70;99.90;;;;;;5069712;28;20275;-55
2021/12/22 00:58:23;;;;;;;5.23;4.10;;;-4.70;99.90;;;;;;5069910;28;20450;-55
2021/12/22 01:00:51;;;;;;;5.22;4.20;;;-4.70;99.90;;;;;;5056234;28;20492;-55
2021/12/22 01:03:20;;;;;;;6.10;4.90;;;-4.70;99.90;;;;;;5063932;28;20277;-56
2021/12/22 01:05:48;;;;;;;8.37;5.70;;;-4.70;99.90;;;;;;5063504;28;20536;-55
2021/12/22 01:08:16;;;;;;;9.87;5.23;;;-4.70;99.90;;;;;;5057158;28;20483;-56
2021/12/22 01:10:43;;;;;;;7.53;4.80;;;-4.70;99.90;;;;;;5057516;28;20488;-55
2021/12/22 01:13:10;;;;;;;7.50;5.85;;;-4.70;99.90;;;;;;5063147;28;20292;-56
2021/12/22 01:15:38;;;;;;;7.83;4.63;;;-4.80;99.90;;;;;;5055904;28;20222;-56
2021/12/22 01:18:11;;;;;;;7.22;5.65;;;-4.80;99.90;;;;;;5068295;28;20483;-55
2021/12/22 01:20:52;;;;;;;4.60;4.15;;;-4.80;99.90;;;;;;5061525;28;20658;-55
2021/12/22 01:23:21;;;;;;;7.73;4.63;;;-5.20;99.90;;;;;;5062237;28;20277;-56
2021/12/22 01:25:49;;;;;;;9.47;5.63;;;-5.30;99.90;;;;;;5057382;28;20848;-55
2021/12/22 01:28:17;;;;;;;5.10;4.60;;;-5.20;99.90;;;;;;5064449;28;20987;-56
2021/12/22 01:30:46;;;;;;;6.15;4.20;;;-5.10;99.90;;;;;;5069947;28;20962;-56
2021/12/22 01:33:15;;;;;;;4.67;3.93;;;-5.20;99.90;;;;;;5067963;28;20197;-57
2021/12/22 01:35:44;;;;;;;4.43;3.58;;;-5.20;99.90;;;;;;5068758;28;20478;-55
2021/12/22 01:38:11;;;;;;;3.55;2.90;;;-5.10;99.90;;;;;;5059455;28;20290;-55
2021/12/22 01:40:42;;;;;;;7.87;3.70;;;-5.10;99.90;;;;;;5066504;28;20240;-55
2021/12/22 01:43:09;;;;;;;3.65;3.35;;;-5.00;99.90;;;;;;5068762;28;20542;-54
2021/12/22 01:45:54;;;;;;;4.45;3.83;;;-5.00;99.90;;;;;;5054239;28;20228;-56
2021/12/22 01:51:25;;;;;;;4.80;4.40;;;-5.20;99.90;;;;;;5067617;28;20282;-56
2021/12/22 01:53:59;;;;;;;5.20;4.67;;;-5.60;99.90;;;;;;5057685;28;20277;-57
2021/12/22 01:56:30;;;;;;;5.70;5.20;;;-5.40;99.90;;;;;;5051770;28;20984;-54
2021/12/22 01:58:59;;;;;;;6.75;4.65;;;-5.30;99.90;;;;;;5062734;28;20449;-56
2021/12/22 02:01:28;;;;;;;8.70;4.20;;;-5.50;99.90;;;;;;5057976;28;20315;-55
2021/12/22 02:03:55;;;;;;;4.87;4.30;;;-5.90;99.90;;;;;;5068151;28;20901;-56
2021/12/22 02:06:23;;;;;;;6.22;5.18;;;-6.00;99.90;;;;;;5065923;28;20468;-56
2021/12/22 02:08:52;;;;;;;6.28;4.25;;;-5.70;99.90;;;;;;5057695;28;20287;-56
2021/12/22 02:11:21;;;;;;;5.20;4.13;;;-5.50;99.90;;;;;;5052315;28;20296;-56
2021/12/22 02:13:56;;;;;;;5.32;4.10;;;-5.30;99.90;;;;;;5063842;28;20634;-55
2021/12/22 02:16:27;;;;;;;4.90;4.45;;;-5.60;99.90;;;;;;5057772;28;20565;-55
2021/12/22 02:18:55;;;;;;;4.03;3.35;;;-5.80;99.90;;;;;;5067848;28;20205;-56
2021/12/22 02:21:26;;;;;;;5.33;4.83;;;-5.90;99.90;;;;;;5067926;28;20223;-55
2021/12/22 02:23:53;;;;;;;6.82;4.45;;;-5.80;99.90;;;;;;5055750;28;20445;-56
2021/12/22 02:26:30;;;;;;;4.88;4.30;;;-5.60;99.90;;;;;;5067225;28;20449;-55
2021/12/22 02:29:01;;;;;;;5.38;4.60;;;-5.40;99.90;;;;;;5067553;28;20212;-55
2021/12/22 02:31:28;;;;;;;5.17;4.30;;;-5.30;99.90;;;;;;5068737;28;20760;-56
2021/12/22 02:33:57;;;;;;;9.00;5.93;;;-5.30;99.90;;;;;;5055405;28;20454;-55
2021/12/22 02:36:29;;;;;;;5.78;4.93;;;-5.40;99.90;;;;;;5066166;28;20521;-55
2021/12/22 02:38:58;;;;;;;6.30;5.03;;;-5.90;99.90;;;;;;5062692;28;20610;-56
2021/12/22 02:41:28;;;;;;;5.40;4.00;;;-6.20;99.90;;;;;;5067154;28;20541;-55
2021/12/22 02:43:57;;;;;;;6.20;4.38;;;-6.40;99.90;;;;;;5060941;28;20204;-56
2021/12/22 02:46:26;;;;;;;7.10;4.80;;;-6.10;99.90;;;;;;5057426;28;20574;-57
2021/12/22 02:48:54;;;;;;;6.40;4.40;;;-5.90;99.90;;;;;;5055044;28;20231;-56
2021/12/22 02:51:22;;;;;;;6.93;5.00;;;-5.80;99.90;;;;;;5065269;28;20310;-55
2021/12/22 02:54:02;;;;;;;5.00;4.43;;;-5.60;99.90;;;;;;5053927;28;20944;-55
2021/12/22 02:56:37;;;;;;;5.70;5.17;;;-5.50;99.90;;;;;;5058517;28;20200;-55
2021/12/22 02:59:14;;;;;;;7.20;5.05;;;-5.40;99.90;;;;;;5059293;28;20446;-55
2021/12/22 03:04:30;;;;;;;6.65;5.90;;;-5.30;99.90;;;;;;5052696;28;20744;-55
2021/12/22 03:07:01;;;;;;;8.60;6.30;;;-5.30;99.90;;;;;;5061294;28;20291;-56
2021/12/22 03:09:31;;;;;;;7.15;5.20;;;-5.30;99.90;;;;;;5058672;28;20461;-56
2021/12/22 03:12:01;;;;;;;6.77;5.23;;;-5.20;99.90;;;;;;5067647;28;20303;-55
2021/12/22 03:14:29;;;;;;;4.40;4.00;;;-5.20;99.90;;;;;;5066249;28;20979;-57
2021/12/22 03:16:57;;;;;;;6.33;3.80;;;-5.20;99.90;;;;;;5059630;28;20912;-56
2021/12/22 03:19:26;;;;;;;5.40;4.23;;;-5.20;99.90;;;;;;5051146;28;20486;-56
2021/12/22 03:22:00;;;;;;;6.13;4.13;;;-5.30;99.90;;;;;;5063549;28;20490;-56
2021/12/22 03:24:29;;;;;;;4.78;4.30;;;-5.30;99.90;;;;;;5057680;28;20204;-56
2021/12/22 03:27:00;;;;;;;4.80;4.03;;;-5.30;99.90;;;;;;5067369;28;20222;-56
2021/12/22 03:29:27;;;;;;;7.13;5.07;;;-5.20;99.90;;;;;;5066130;28;20449;-56
2021/12/22 03:31:54;;;;;;;5.55;4.90;;;-5.20;99.90;;;;;;5058579;28;20593;-57
2021/12/22 03:34:21;;;;;;;6.75;4.88;;;-5.20;99.90;;;;;;5051993;28;20280;-55
2021/12/22 03:36:48;;;;;;;6.60;4.85;;;-5.20;99.90;;;;;;5063380;28;20701;-54
2021/12/22 03:39:16;;;;;;;7.72;5.55;;;-5.20;99.90;;;;;;5057416;28;20236;-56
2021/12/22 03:41:46;;;;;;;5.40;4.90;;;-5.20;99.90;;;;;;5056159;28;20274;-55
2021/12/22 03:44:14;;;;;;;6.50;4.90;;;-5.20;99.90;;;;;;5061017;28;20515;-56
2021/12/22 03:46:41;;;;;;;5.47;4.97;;;-5.20;99.90;;;;;;5054963;28;20278;-55
2021/12/22 03:49:10;;;;;;;4.75;4.25;;;-5.20;99.90;;;;;;5053333;28;20393;-55
2021/12/22 03:51:38;;;;;;;6.45;5.15;;;-5.30;99.90;;;;;;5063355;28;20300;-55
2021/12/22 03:54:06;;;;;;;13.37;5.37;;;-5.50;99.90;;;;;;5053644;28;20283;-55
2021/12/22 03:56:33;;;;;;;6.72;5.50;;;-5.50;99.90;;;;;;5057746;28;20542;-56
2021/12/22 03:59:01;;;;;;;6.53;5.17;;;-5.50;99.90;;;;;;5061164;28;20290;-55
2021/12/22 04:01:28;;;;;;;6.97;4.45;;;-5.50;99.90;;;;;;5055972;28;21003;-56
2021/12/22 04:03:59;;;;;;;8.20;5.70;;;-5.50;99.90;;;;;;5062339;28;20285;-56
2021/12/22 04:06:27;;;;;;;5.50;5.00;;;-5.60;99.90;;;;;;5062576;28;20214;-57
2021/12/22 04:08:54;;;;;;;7.40;6.20;;;-5.50;99.90;;;;;;5050903;28;20922;-56
2021/12/22 04:11:21;;;;;;;5.88;4.95;;;-5.60;99.90;;;;;;5063347;28;20250;-55
2021/12/22 04:13:48;;;;;;;8.30;4.35;;;-5.60;99.90;;;;;;5063822;28;20285;-56
2021/12/22 04:16:17;;;;;;;7.63;4.50;;;-6.00;99.90;;;;;;5058298;28;20207;-55
2021/12/22 04:18:44;;;;;;;4.00;3.60;;;-6.00;99.90;;;;;;5071214;28;20240;-56
2021/12/22 04:21:11;;;;;;;8.32;5.07;;;-6.20;99.90;;;;;;5069440;28;20247;-55
2021/12/22 04:23:38;;;;;;;6.28;4.57;;;-6.20;99.90;;;;;;5053968;28;20200;-55
2021/12/22 04:26:05;;;;;;;8.02;5.82;;;-6.50;99.90;;;;;;5064580;28;20205;-55
2021/12/22 04:28:33;;;;;;;8.38;4.97;;;-6.50;99.90;;;;;;5061966;28;20239;-56
2021/12/22 04:30:59;;;;;;;4.80;4.32;;;-6.30;99.90;;;;;;5058231;28;20697;-56
2021/12/22 04:33:28;;;;;;;7.30;5.45;;;-6.10;99.90;;;;;;5069467;28;20229;-55
2021/12/22 04:35:55;;;;;;;5.50;4.88;;;-5.90;99.90;;;;;;5059574;28;20639;-56
2021/12/22 04:38:22;;;;;;;7.50;6.50;;;-5.70;99.90;;;;;;5064475;28;20200;-55
2021/12/22 04:40:49;;;;;;;9.15;5.45;;;-5.60;99.90;;;;;;5064154;28;20528;-55
2021/12/22 04:43:16;;;;;;;9.38;5.72;;;-5.50;99.90;;;;;;5065184;28;20291;-58
2021/12/22 04:45:43;;;;;;;6.13;5.53;;;-5.40;99.90;;;;;;5069271;28;20224;-55
2021/12/22 04:48:11;;;;;;;7.35;5.25;;;-5.40;99.90;;;;;;5065263;28;20257;-55
2021/12/22 04:50:39;;;;;;;5.75;5.18;;;-5.40;99.90;;;;;;5060267;28;20204;-55
2021/12/22 04:53:13;;;;;;;8.07;5.00;;;-5.40;99.90;;;;;;5062510;28;20193;-55
2021/12/22 04:55:40;;;;;;;4.13;3.75;;;-5.40;99.90;;;;;;5065142;28;20805;-55
2021/12/22 04:58:08;;;;;;;6.30;4.55;;;-5.40;99.90;;;;;;5057274;28;20639;-56
2021/12/22 05:00:37;;;;;;;5.78;4.57;;;-5.40;99.90;;;;;;5059723;28;20244;-55
2021/12/22 05:03:04;;;;;;;5.90;5.30;;;-5.40;99.90;;;;;;5065252;28;20228;-56
2021/12/22 05:05:31;;;;;;;5.07;4.60;;;-5.40;99.90;;;;;;5060336;28;20495;-55
2021/12/22 05:08:00;;;;;;;3.70;3.40;;;-5.40;99.90;;;;;;5064110;28;20278;-55
2021/12/22 05:10:28;;;;;;;6.47;3.95;;;-5.40;99.90;;;;;;5062545;28;20657;-56
2021/12/22 05:12:55;;;;;;;5.63;4.70;;;-5.40;99.90;;;;;;5064299;28;20753;-56
2021/12/22 05:15:25;;;;;;;5.80;4.23;;;-5.40;99.90;;;;;;5068106;28;20530;-55
2021/12/22 05:18:20;;;;;;;8.85;4.03;;;-5.80;99.90;;;;;;5066504;28;20442;-56
2021/12/22 05:20:48;;;;;;;3.95;3.53;;;-6.20;99.90;;;;;;5056948;28;20252;-55
2021/12/22 05:23:17;;;;;;;5.10;4.70;;;-6.60;99.90;;;;;;5062231;28;20192;-55
2021/12/22 05:25:44;;;;;;;8.43;4.65;;;-6.90;99.90;;;;;;5062915;28;20295;-56
2021/12/22 05:28:11;;;;;;;7.13;5.70;;;-6.70;99.90;;;;;;5056938;28;20286;-55
2021/12/22 05:30:38;;;;;;;9.20;6.43;;;-6.50;99.90;;;;;;5068055;28;20290;-57
2021/12/22 05:33:05;;;;;;;9.73;6.03;;;-6.30;99.90;;;;;;5065836;28;20568;-56
2021/12/22 05:35:32;;;;;;;8.88;7.80;;;-6.20;99.90;;;;;;5053757;28;20643;-55
2021/12/22 05:37:59;;;;;;;9.20;6.23;;;-6.20;99.90;;;;;;5064006;28;20281;-55
2021/12/22 05:40:27;;;;;;;5.72;5.22;;;-6.60;99.90;;;;;;5062504;28;20540;-55
2021/12/22 05:42:56;;;;;;;7.47;5.20;;;-6.40;99.90;;;;;;5061092;28;20214;-56
2021/12/22 05:45:23;;;;;;;5.63;5.10;;;-6.30;99.90;;;;;;5060524;28;20648;-56
2021/12/22 05:47:50;;;;;;;7.13;4.82;;;-6.20;99.90;;;;;;5060407;28;20767;-56
2021/12/22 05:50:17;;;;;;;6.18;5.03;;;-6.10;99.90;;;;;;5064473;28;20198;-56
2021/12/22 05:52:44;;;;;;;4.78;4.38;;;-6.00;99.90;;;;;;5065210;28;20307;-55
2021/12/22 05:55:11;;;;;;;5.30;4.80;;;-5.90;99.90;;;;;;5060813;28;20293;-55
2021/12/22 05:57:39;;;;;;;4.95;4.13;;;-5.90;99.90;;;;;;5050798;28;20746;-56
2021/12/22 06:00:08;;;;;;;9.10;5.80;;;-5.90;99.90;;;;;;5061393;28;20290;-56
2021/12/22 06:02:35;;;;;;;7.05;5.57;;;-5.90;99.90;;;;;;5060796;28;20311;-55
2021/12/22 06:05:02;;;;;;;5.78;5.20;;;-5.90;99.90;;;;;;5063772;28;20289;-56
2021/12/22 06:07:28;;;;;;;6.07;5.43;;;-5.90;99.90;;;;;;5064804;28;20264;-56
2021/12/22 06:09:55;;;;;;;5.73;4.83;;;-5.90;99.90;;;;;;5065057;28;20989;-56
2021/12/22 06:12:22;;;;;;;5.80;5.22;;;-5.80;99.90;;;;;;5063349;28;20562;-56
2021/12/22 06:14:51;;;;;;;7.07;5.22;;;-5.80;99.90;;;;;;5062803;28;20289;-55
2021/12/22 06:17:18;;;;;;;8.88;6.18;;;-5.90;99.90;;;;;;5065894;28;20235;-55
2021/12/22 06:19:45;;;;;;;9.30;7.90;;;-5.90;99.90;;;;;;5061003;28;20348;-56
2021/12/22 06:22:12;;;;;;;9.73;7.53;;;-5.80;99.90;;;;;;5065173;28;20305;-56
2021/12/22 06:24:39;;;;;;;14.52;10.38;;;-5.80;99.90;;;;;;5066034;28;20235;-56
2021/12/22 06:27:06;;;;;;;10.73;7.15;;;-5.70;99.90;;;;;;5059664;28;20281;-55
2021/12/22 06:29:33;;;;;;;8.25;5.93;;;-5.70;99.90;;;;;;5064115;28;20646;-55
2021/12/22 06:32:01;;;;;;;7.50;5.35;;;-5.70;99.90;;;;;;5063801;28;20342;-56
2021/12/22 06:34:28;;;;;;;7.05;6.05;;;-5.70;99.90;;;;;;5062837;28;20280;-55
2021/12/22 06:36:55;;;;;;;7.22;5.40;;;-5.70;99.90;;;;;;5064500;28;20292;-55
2021/12/22 06:39:22;;;;;;;10.85;6.55;;;-5.80;99.90;;;;;;5063032;28;20290;-56
2021/12/22 06:41:49;;;;;;;6.88;5.63;;;-5.80;99.90;;;;;;5066434;28;20693;-54
2021/12/22 06:44:17;;;;;;;5.35;4.85;;;-5.80;99.90;;;;;;5066809;28;20298;-55
2021/12/22 06:46:44;;;;;;;6.95;5.38;;;-5.80;99.90;;;;;;5055297;28;20253;-55
2021/12/22 06:49:12;;;;;;;6.90;4.97;;;-5.80;99.90;;;;;;5065093;28;20778;-55
2021/12/22 06:51:40;;;;;;;7.63;5.20;;;-5.80;99.90;;;;;;5067356;28;20549;-55
2021/12/22 06:54:07;;;;;;;6.20;5.60;;;-5.80;99.90;;;;;;5069578;28;20321;-55
2021/12/22 06:56:34;;;;;;;10.50;5.90;;;-5.80;99.90;;;;;;5063404;28;20283;-56
2021/12/22 06:59:02;;;;;;;7.10;5.40;;;-5.90;99.90;;;;;;5065708;28;20701;-56
2021/12/22 07:01:32;;;;;;;5.33;4.83;;;-6.00;99.90;;;;;;5057960;28;20661;-55
2021/12/22 07:03:59;;;;;;;8.68;5.75;;;-6.00;99.90;;;;;;5064040;28;20873;-57
2021/12/22 07:06:30;;;;;;;7.22;5.18;;;-6.00;99.90;;;;;;5063158;28;20298;-55
2021/12/22 07:08:57;;;;;;;6.75;5.78;;;-6.20;99.90;;;;;;5058304;28;20278;-55
2021/12/22 07:11:24;;;;;;;6.30;4.95;;;-6.30;99.90;;;;;;5068526;28;20251;-55
2021/12/22 07:13:51;;;;;;;5.75;5.15;;;-6.30;99.90;;;;;;5069464;28;20765;-55
2021/12/22 07:16:18;;;;;;;5.57;4.55;;;-6.20;99.90;;;;;;5053887;28;20731;-55
2021/12/22 07:18:45;;;;;;;5.00;4.60;;;-6.20;99.90;;;;;;5067573;28;20300;-55
2021/12/22 07:21:12;;;;;;;5.85;4.47;;;-6.80;99.90;;;;;;5068649;28;20253;-55
2021/12/22 07:23:40;;;;;;;7.70;5.23;;;-6.60;99.90;;;;;;5059281;28;20287;-54
2021/12/22 07:26:13;;;;;;;5.63;4.60;;;-6.50;99.90;;;;;;5069749;28;20999;-55
2021/12/22 07:28:40;;;;;;;7.13;3.97;;;-6.50;99.90;;;;;;5069287;28;20205;-55
2021/12/22 07:31:07;;;;;;;6.25;5.57;;;-6.80;99.90;;;;;;5054134;28;20221;-55
2021/12/22 07:33:34;;;;;;;5.78;5.20;;;-7.10;99.90;;;;;;5067873;28;20322;-55
2021/12/22 07:36:03;;;;;;;6.75;4.70;;;-7.20;99.90;;;;;;5057360;28;20244;-55
2021/12/22 07:38:35;;;;;;;5.10;4.70;;;-6.90;99.90;;;;;;5070508;28;20294;-55
2021/12/22 07:41:05;;;;;;;9.85;5.30;;;-6.70;99.90;;;;;;5059433;28;20311;-55
2021/12/22 07:43:32;;;;;;;7.47;4.75;;;-6.70;99.90;;;;;;5059359;28;20316;-55
2021/12/22 07:45:59;;;;;;;7.88;6.55;;;-6.50;99.90;;;;;;5060020;28;20383;-55
2021/12/22 07:48:27;;;;;;;8.95;6.90;;;-6.30;99.90;;;;;;5071910;28;20298;-55
2021/12/22 07:50:54;;;;;;;11.20;7.20;;;-6.30;99.90;;;;;;5063811;28;20314;-55
2021/12/22 07:53:21;;;;;;;7.00;5.53;;;-6.20;99.90;;;;;;5072262;28;20300;-56
2021/12/22 07:55:52;;;;;;;7.15;5.28;;;-6.10;99.90;;;;;;5068756;28;20230;-55
2021/12/22 07:58:21;;;;;;;11.77;5.80;;;-6.10;99.90;;;;;;5066146;28;20201;-55
2021/12/22 08:00:48;;;;;;;8.97;6.30;;;-6.10;99.90;;;;;;5068065;28;20286;-55
2021/12/22 08:03:15;;;;;;;7.18;6.15;;;-6.10;99.90;;;;;;5071437;28;20514;-55
2021/12/22 08:05:42;;;;;;;8.68;6.88;;;-6.10;99.90;;;;;;5063077;28;20238;-55
2021/12/22 08:08:09;;;;;;;7.37;5.83;;;-6.10;99.90;;;;;;5057589;28;20233;-55
2021/12/22 08:10:36;;;;;;;7.68;7.05;;;-6.10;99.90;;;;;;5066466;28;20513;-56
2021/12/22 08:13:04;;;;;;;8.75;7.15;;;-6.10;99.90;;;;;;5059950;28;20302;-56
2021/12/22 08:15:32;;;;;;;11.40;7.55;;;-6.30;99.90;;;;;;5058917;28;20397;-55
2021/12/22 08:17:59;;;;;;;13.25;11.30;;;-6.30;99.90;;;;;;5067098;28;20278;-55
2021/12/22 08:20:27;;;;;;;13.80;10.85;;;-6.20;99.90;;;;;;5061998;28;20675;-56
2021/12/22 08:22:54;;;;;;;16.50;9.95;;;-6.20;99.90;;;;;;5067786;28;20743;-55
2021/12/22 08:25:21;;;;;;;13.50;9.75;;;-6.40;99.90;;;;;;5068129;28;20225;-55
2021/12/22 08:27:48;;;;;;;5.80;5.20;;;-6.40;99.90;;;;;;5056055;28;20293;-55
2021/12/22 08:30:15;;;;;;;8.88;7.05;;;-6.70;99.90;;;;;;5063024;28;20286;-57
2021/12/22 08:32:44;;;;;;;29.27;15.30;;;-6.50;99.90;;;;;;5067864;28;20329;-55
2021/12/22 08:35:13;;;;;;;20.02;11.10;;;-6.80;99.90;;;;;;5061179;28;20249;-55
2021/12/22 08:40:25;;;;;;;8.70;6.43;;;-6.80;99.90;;;;;;5066727;28;20290;-55
2021/12/22 08:42:53;;;;;;;8.57;7.75;;;-6.60;99.90;;;;;;5055878;28;20899;-55
2021/12/22 08:45:21;;;;;;;8.70;6.45;;;-6.70;99.90;;;;;;5072013;28;20283;-55
2021/12/22 08:47:49;;;;;;;11.63;7.28;;;-6.60;99.90;;;;;;5069990;28;20295;-55
2021/12/22 08:50:18;;;;;;;9.05;7.20;;;-6.50;99.90;;;;;;5062930;28;20734;-56
2021/12/22 08:52:46;;;;;;;8.10;7.30;;;-6.60;99.90;;;;;;5068733;28;20227;-55
2021/12/22 08:55:15;;;;;;;7.40;6.70;;;-6.50;99.90;;;;;;5072282;28;20208;-56
2021/12/22 08:57:42;;;;;;;8.82;6.78;;;-6.50;99.90;;;;;;5052843;28;20590;-55
2021/12/22 09:00:11;;;;;;;7.72;6.97;;;-6.60;99.90;;;;;;5065453;28;20291;-56
2021/12/22 09:02:38;;;;;;;8.00;6.88;;;-6.40;99.90;;;;;;5063859;28;20232;-55
2021/12/22 09:05:08;;;;;;;12.25;8.95;;;-6.30;99.90;;;;;;5058340;28;20234;-54
2021/12/22 09:07:35;;;;;;;8.65;7.65;;;-6.20;99.90;;;;;;5068905;28;20286;-55
2021/12/22 09:10:02;;;;;;;9.25;6.28;;;-6.10;99.90;;;;;;5061801;28;20246;-55
2021/12/22 09:12:29;;;;;;;11.57;6.63;;;-5.10;99.90;;;;;;5052704;28;20732;-54
2021/12/22 09:14:57;;;;;;;10.43;6.43;;;-3.30;99.90;;;;;;5069272;28;20209;-56
2021/12/22 09:17:24;;;;;;;6.50;4.97;;;-1.70;99.90;;;;;;5062757;28;20629;-56
2021/12/22 09:19:53;;;;;;;8.87;5.70;;;-0.30;99.90;;;;;;5069151;28;20469;-55
2021/12/22 09:22:21;;;;;;;5.97;5.13;;;0.70;99.90;;;;;;5070174;28;20466;-57
2021/12/22 09:24:48;;;;;;;5.77;5.27;;;1.40;99.90;;;;;;5060507;28;20490;-56
2021/12/22 09:27:15;;;;;;;13.40;10.00;;;1.80;99.90;;;;;;5071246;28;20525;-56
2021/12/22 09:29:43;;;;;;;11.10;10.00;;;1.70;99.90;;;;;;5068659;28;20533;-56
2021/12/22 09:32:14;;;;;;;15.03;10.80;;;1.00;99.90;;;;;;5058925;28;20508;-55
2021/12/22 09:34:41;;;;;;;11.20;8.57;;;0.20;99.90;;;;;;5059080;28;20452;-56
2021/12/22 09:37:09;;;;;;;7.43;6.13;;;-0.60;99.90;;;;;;5066928;28;20482;-58
2021/12/22 09:39:37;;;;;;;8.27;7.47;;;-1.40;99.90;;;;;;5059699;28;20560;-54
2021/12/22 09:42:05;;;;;;;8.03;6.67;;;-2.20;99.90;;;;;;5064575;28;20543;-54
2021/12/22 09:44:36;;;;;;;10.00;7.20;;;-2.70;99.90;;;;;;5065378;28;20511;-53
2021/12/22 09:47:05;;;;;;;11.00;8.57;;;-3.40;99.90;;;;;;5056970;28;20936;-53
2021/12/22 09:49:58;;;;;;;11.93;9.30;;;-3.80;99.90;;;;;;5060444;28;20445;-54
2021/12/22 09:52:27;;;;;;;8.90;6.87;;;-4.50;99.90;;;;;;5067883;28;20475;-53
2021/12/22 09:54:59;;;;;;;11.20;7.50;;;-5.10;99.90;;;;;;5067762;28;20456;-54
2021/12/22 09:57:27;;;;;;;10.03;7.33;;;-5.10;99.90;;;;;;5069687;28;20987;-54
2021/12/22 09:59:55;;;;;;;7.90;7.10;;;-5.30;99.90;;;;;;5067024;28;20537;-54
2021/12/22 10:02:28;;;;;;;9.30;8.15;;;-5.30;99.90;;;;;;5056774;28;20457;-54
2021/12/22 10:04:55;;;;;;;9.70;7.73;;;-5.30;99.90;;;;;;5057110;28;20187;-54
2021/12/22 10:07:26;;;;;;;7.93;6.93;;;-5.30;99.90;;;;;;5066646;28;20527;-54
2021/12/22 10:09:56;;;;;;;5.93;5.33;;;-5.30;99.90;;;;;;5065519;28;20953;-55
2021/12/22 10:12:25;;;;;;;7.93;6.47;;;-4.80;99.90;;;;;;5062360;28;20493;-54
2021/12/22 10:14:54;;;;;;;8.53;7.50;;;-4.30;99.90;;;;;;5067130;28;20528;-54
2021/12/22 10:17:36;;;;;;;22.57;14.47;;;-4.10;99.90;;;;;;5061297;28;20479;-54
2021/12/22 10:20:08;;;;;;;16.87;12.07;;;-4.00;99.90;;;;;;5059804;28;20468;-54
2021/12/22 10:22:36;;;;;;;17.83;12.07;;;-3.90;99.90;;;;;;5067882;28;21045;-54
2021/12/22 10:25:11;;;;;;;13.93;10.33;;;-3.90;99.90;;;;;;5056713;28;20523;-54
2021/12/22 10:27:40;;;;;;;16.70;10.20;;;-3.80;99.90;;;;;;5059059;28;20525;-54
2021/12/22 10:30:30;;;;;;;11.13;8.30;;;-3.90;99.90;;;;;;5065961;28;20543;-54
2021/12/22 10:33:12;;;;;;;8.03;6.90;;;-4.00;99.90;;;;;;5066963;28;20475;-54
2021/12/22 10:35:40;;;;;;;5.87;5.10;;;-3.90;99.90;;;;;;5054797;28;20855;-54
2021/12/22 10:38:08;;;;;;;5.13;4.60;;;-3.90;99.90;;;;;;5063780;28;20532;-54
2021/12/22 10:40:38;;;;;;;5.40;4.90;;;-3.90;99.90;;;;;;5061140;28;20475;-54
2021/12/22 10:43:06;;;;;;;7.03;5.57;;;-3.90;99.90;;;;;;5056638;28;20472;-54
2021/12/22 10:45:35;;;;;;;11.20;7.73;;;-3.80;99.90;;;;;;5069113;28;20475;-54
2021/12/22 10:50:53;;;;;;;7.20;5.90;;;-3.80;99.90;;;;;;5059408;28;20626;-54
2021/12/22 10:53:20;;;;;;;7.17;6.40;;;-3.70;99.90;;;;;;5061165;28;20564;-54
2021/12/22 10:55:51;;;;;;;6.73;6.10;;;-3.70;99.90;;;;;;5061724;28;20480;-53
2021/12/22 10:58:22;;;;;;;6.53;5.90;;;-3.70;99.90;;;;;;5057574;28;20878;-54
2021/12/22 11:01:10;;;;;;;5.93;4.97;;;-3.60;99.90;;;;;;5064292;28;20892;-53
2021/12/22 11:03:42;;;;;;;5.20;4.43;;;-3.60;99.90;;;;;;5058054;28;20450;-54
2021/12/22 11:06:17;;;;;;;5.43;4.20;;;-3.80;99.90;;;;;;5055649;28;20958;-54
2021/12/22 11:08:54;;;;;;;7.07;6.37;;;-3.80;99.90;;;;;;5057803;28;20498;-54
2021/12/22 11:11:22;;;;;;;8.47;6.70;;;-3.60;99.90;;;;;;5063198;28;20471;-54
2021/12/22 11:14:03;;;;;;;6.07;5.47;;;-3.50;99.90;;;;;;5069155;28;20567;-54
2021/12/22 11:16:30;;;;;;;7.67;6.83;;;-3.50;99.90;;;;;;5062510;28;20473;-54
2021/12/22 11:19:08;;;;;;;7.80;5.77;;;-3.50;99.90;;;;;;5067444;28;20472;-54
2021/12/22 11:21:36;;;;;;;6.40;5.80;;;-3.50;99.90;;;;;;5069352;28;21043;-54
2021/12/22 11:24:04;;;;;;;5.97;5.37;;;-3.40;99.90;;;;;;5070247;28;20442;-54
2021/12/22 11:26:32;;;;;;;6.10;5.60;;;-3.30;99.90;;;;;;5070449;28;20488;-54
2021/12/22 11:29:00;;;;;;;6.63;5.63;;;-3.50;99.90;;;;;;5070093;28;20541;-54
2021/12/22 11:31:27;;;;;;;7.33;6.47;;;-3.40;99.90;;;;;;5068084;28;20503;-54
2021/12/22 11:33:56;;;;;;;7.47;6.10;;;-3.30;99.90;;;;;;5066367;28;21018;-55
2021/12/22 11:36:24;;;;;;;10.20;7.30;;;-3.20;99.90;;;;;;5065002;28;20580;-55
2021/12/22 11:38:52;;;;;;;11.80;7.00;;;-3.10;99.90;;;;;;5064816;28;20472;-56
2021/12/22 11:41:20;;;;;;;7.93;6.70;;;-3.00;99.90;;;;;;5069047;28;20475;-54
2021/12/22 11:43:49;;;;;;;10.17;8.87;;;-3.00;99.90;;;;;;5068506;28;20515;-54
2021/12/22 11:46:17;;;;;;;7.03;6.30;;;-3.00;99.90;;;;;;5064886;28;20441;-55
2021/12/22 11:48:49;;;;;;;6.50;5.90;;;-2.90;99.90;;;;;;5065761;28;20531;-56
2021/12/22 11:51:24;;;;;;;5.53;4.40;;;-2.80;99.90;;;;;;5070456;28;20461;-55
2021/12/22 11:53:52;;;;;;;5.73;5.13;;;-2.80;99.90;;;;;;5059942;28;20571;-55
2021/12/22 11:56:37;;;;;;;4.00;3.67;;;-2.30;99.90;;;;;;5066895;28;20488;-56
2021/12/22 11:59:07;;;;;;;4.50;4.10;;;-2.10;99.90;;;;;;5064359;28;20472;-55
2021/12/22 12:01:34;;;;;;;4.10;3.53;;;-2.00;99.90;;;;;;5062918;28;20510;-56
2021/12/22 12:04:14;;;;;;;3.70;3.40;;;-2.00;99.90;;;;;;5065922;28;20535;-56
2021/12/22 12:07:00;;;;;;;4.10;3.80;;;-2.00;99.90;;;;;;5060305;28;20463;-55
2021/12/22 12:09:31;;;;;;;3.80;3.50;;;-2.00;99.90;;;;;;5057020;28;20514;-56
2021/12/22 12:11:58;;;;;;;4.50;4.00;;;-2.00;99.90;;;;;;5066547;28;20977;-56
2021/12/22 12:15:01;;;;;;;3.73;3.50;;;-2.20;99.90;;;;;;5062791;28;20480;-56
2021/12/22 12:23:22;;;;;;;5.27;4.57;;;-2.20;99.90;;;;;;5068189;28;20470;-56
2021/12/22 12:25:49;;;;;;;2.90;2.70;;;-2.10;99.90;;;;;;5070282;28;20449;-55
2021/12/22 12:28:18;;;;;;;3.13;2.80;;;-2.10;99.90;;;;;;5057471;28;20533;-56
2021/12/22 12:30:48;;;;;;;6.70;5.20;;;-2.10;99.90;;;;;;5065921;28;20541;-56
2021/12/22 12:33:24;;;;;;;5.77;4.80;;;-2.00;99.90;;;;;;5059799;28;20540;-55
2021/12/22 12:35:59;;;;;;;40.37;25.37;;;-2.00;99.90;;;;;;5060263;28;20525;-56
2021/12/22 12:38:30;;;;;;;17.10;13.53;;;-2.00;99.90;;;;;;5070597;28;20499;-56
2021/12/22 12:41:16;;;;;;;4.33;3.83;;;-2.00;99.90;;;;;;5070877;28;20491;-55
2021/12/22 12:43:57;;;;;;;3.60;3.00;;;-2.00;99.90;;;;;;5053769;28;20839;-56
2021/12/22 12:46:37;;;;;;;5.07;2.87;;;-2.00;99.90;;;;;;5063810;28;20449;-55
2021/12/22 12:49:34;;;;;;;3.27;2.97;;;-2.00;99.90;;;;;;5063560;28;20494;-55
2021/12/22 12:52:10;;;;;;;2.00;1.90;;;-1.90;99.90;;;;;;5064517;28;20474;-56
2021/12/22 12:54:48;;;;;;;2.57;2.37;;;-1.90;99.90;;;;;;5061139;28;20844;-54
2021/12/22 12:57:35;;;;;;;3.03;2.33;;;-1.90;99.90;;;;;;5064611;28;20528;-56
2021/12/22 13:00:07;;;;;;;4.60;2.53;;;-1.90;99.90;;;;;;5064705;28;21627;-56
2021/12/22 13:02:37;;;;;;;4.60;2.83;;;-1.90;99.90;;;;;;5061714;28;20559;-56
2021/12/22 13:05:13;;;;;;;7.30;3.20;;;-1.90;99.90;;;;;;5064078;28;20442;-57
2021/12/22 13:07:40;;;;;;;3.20;2.90;;;-1.90;99.90;;;;;;5068345;28;20541;-56
2021/12/22 13:10:13;;;;;;;5.13;3.70;;;-1.90;99.90;;;;;;5059156;28;20952;-56
2021/12/22 13:13:01;;;;;;;7.90;4.10;;;-2.10;99.90;;;;;;5069314;28;20472;-56
2021/12/22 13:18:16;;;;;;;5.50;4.00;;;-2.00;99.90;;;;;;5062501;28;20438;-56